Terminal Aerodrome Forecast
Issued by NWS

Current Version | Previous Version | Text Only | Print | Product List | Glossary On
Versions: 1 2 3 4 5 6 7 8 9 10 11 12
000
FTUS44 KCRP 301729
TAFALI
TAF
KALI 301729Z 3018/3118 VRB03KT P6SM SCT035 BKN250
     FM302100 13010G18KT P6SM BKN040
     FM310200 15008KT P6SM FEW025 BKN200
     FM311000 VRB03KT 5SM BR SCT020 BKN150
      TEMPO 3110/3113 2SM BR BKN020
     FM311500 15004KT P6SM VCSH BKN030=

USA.gov is the U.S. government's official web portal to all federal, state and local government web resources and services.